Terminal Aerodrome Forecast
Issued by NWS Brownsville, TX

Home | Current Version | Previous Version | Text Only | Print | Product List | Glossary On
Versions: 1 2 3 4 5 6 7 8 9 10 11 12 13 14 15 16 17 18 19 20 21 22 23 24 25 26
000
FTUS44 KBRO 172300
TAFMFE
TAF
KMFE 172320Z 1800/1824 14013G18KT P6SM SCT045 SCT250
     FM180200 13009KT P6SM SCT250
     FM181000 15006KT P6SM BKN020
     FM181600 16010G15KT P6SM BKN030=

USA.gov is the U.S. government's official web portal to all federal, state and local government web resources and services.